Madison, MN

2:30 PM CST on January 19, 2018 (GMT -0600)
Madison-Lac Qui Parle County

Weather History for KDXX - May, 2013

Change the Weather History Date:

Wednesday, May 15, 2013

  Actual Average (KAQP) Record (KAQP)
Temperature  
Mean Temperature 62 °F -  
Max Temperature 78 °F 65 °F 95 °F (2001)
Min Temperature 46 °F 43 °F 30 °F (1997)
Degree Days  
Heating Degree Days 3    
Growing Degree Days 12 (Base 50)    
Moisture  
Dew Point 41 °F    
Average Humidity 46    
Maximum Humidity 76    
Minimum Humidity 22    
Precipitation  
Precipitation 0.00 in - - ()
Sea Level Pressure  
Sea Level Pressure 29.87 in    
Wind  
Wind Speed 7 mph (West)    
Max Wind Speed 16 mph    
Max Gust Speed 23 mph    
Visibility 10 miles    
Events      
Averages and records for this station are not official NWS values.
T = Trace of Precipitation, MM = Missing Value Source: NWS Daily Summary

Daily Weather History Graph

Daily Weather History Graph

Search for Another Location

Airport or City:

Trip Planner

Search our weather history database for the weather conditions in past years. The results will help you decide how hot, cold, wet, or windy it might be!

Date:

Astronomy

May. 15, 2013 Rise Set
Actual Time 5:55 AM CDT 8:47 PM CDT
Civil Twilight 5:21 AM CDT 9:21 PM CDT
Nautical Twilight 4:37 AM CDT 10:05 PM CDT
Astronomical Twilight 3:46 AM CDT 10:57 PM CDT
Moon 10:34 AM CDT (5/15) 12:32 AM CDT (5/15)
Length of Visible Light 16h 00m
Length of Day
14h 52m
Waxing Crescent, 27% of the Moon is Illuminated
May 15
Waxing Crescent
May 17
First Quarter
May 24
Full
May 31
Last Quarter
Jun 8
New

Hourly Weather History & Observations

Time (CDT) Temp. Windchill Dew Point Humidity Pressure Visibility Wind Dir Wind Speed Gust Speed Precip Events Conditions
12:14 AM 57.2 °F - 39.2 °F 51% 29.82 in 10.0 mi NW 5.8 mph - N/A   Clear
12:34 AM 57.2 °F - 39.2 °F 51% 29.83 in 10.0 mi WNW 5.8 mph - N/A   Clear
12:53 AM 53.6 °F - 41.0 °F 62% 29.83 in 10.0 mi WNW 6.9 mph - N/A   Clear
1:14 AM 51.8 °F - 39.2 °F 62% 29.83 in 10.0 mi WNW 5.8 mph - N/A   Clear
1:33 AM 51.8 °F - 37.4 °F 58% 29.84 in 10.0 mi West 8.1 mph - N/A   Clear
1:54 AM 50.0 °F - 39.2 °F 66% 29.85 in 10.0 mi West 6.9 mph - N/A   Clear
2:13 AM 48.2 °F - 37.4 °F 66% 29.86 in 10.0 mi West 8.1 mph - N/A   Clear
2:33 AM 51.8 °F - 39.2 °F 62% 29.87 in 10.0 mi West 8.1 mph - N/A   Clear
2:54 AM 48.2 °F - 37.4 °F 66% 29.86 in 10.0 mi West 5.8 mph - N/A   Clear
3:13 AM 48.2 °F - 37.4 °F 66% 29.87 in 10.0 mi West 8.1 mph - N/A   Clear
3:33 AM 50.0 °F - 39.2 °F 66% 29.87 in 10.0 mi WNW 6.9 mph - N/A   Clear
3:54 AM 46.4 °F - 39.2 °F 76% 29.86 in 10.0 mi Calm Calm - N/A   Clear
4:14 AM 48.2 °F - 37.4 °F 66% 29.86 in 10.0 mi NNW 6.9 mph - N/A   Clear
4:33 AM 50.0 °F - 39.2 °F 66% 29.87 in 10.0 mi NW 6.9 mph - N/A   Clear
4:54 AM 46.4 °F 45.2 °F 37.4 °F 71% 29.88 in 10.0 mi WSW 3.5 mph - N/A   Clear
5:14 AM 46.4 °F 44.3 °F 39.2 °F 76% 29.88 in 10.0 mi West 4.6 mph - N/A   Clear
5:33 AM 46.4 °F 41.9 °F 37.4 °F 71% 29.90 in 10.0 mi West 9.2 mph - N/A   Clear
5:54 AM 51.8 °F - 41.0 °F 67% 29.94 in 10.0 mi West 10.4 mph - N/A   Clear
6:14 AM 53.6 °F - 41.0 °F 62% 29.94 in 10.0 mi West 6.9 mph - N/A   Clear
6:33 AM 53.6 °F - 42.8 °F 67% 29.93 in 10.0 mi Calm Calm - N/A   Clear
6:54 AM 53.6 °F - 42.8 °F 67% 29.91 in 10.0 mi Calm Calm - N/A   Clear
7:14 AM 53.6 °F - 42.8 °F 67% 29.90 in 10.0 mi Calm Calm - N/A   Clear
7:33 AM 53.6 °F - 42.8 °F 67% 29.88 in 10.0 mi South 5.8 mph - N/A   Clear
7:54 AM 55.4 °F - 44.6 °F 67% 29.92 in 10.0 mi West 5.8 mph - N/A   Clear
8:13 AM 57.2 °F - 44.6 °F 63% 29.90 in 10.0 mi WSW 4.6 mph - N/A   Clear
8:34 AM 57.2 °F - 44.6 °F 63% 29.91 in 10.0 mi West 4.6 mph - N/A   Clear
8:53 AM 59.0 °F - 46.4 °F 63% 29.93 in 10.0 mi West 4.6 mph - N/A   Clear
9:14 AM 59.0 °F - 46.4 °F 63% 29.94 in 10.0 mi WSW 6.9 mph - N/A   Clear
9:34 AM 60.8 °F - 46.4 °F 59% 29.94 in 10.0 mi WSW 6.9 mph - N/A   Clear
9:53 AM 62.6 °F - 46.4 °F 55% 29.93 in 10.0 mi West 10.4 mph - N/A   Clear
10:14 AM 64.4 °F - 44.6 °F 49% 29.93 in 10.0 mi WSW 10.4 mph - N/A   Clear
10:34 AM 64.4 °F - 44.6 °F 49% 29.92 in 10.0 mi West 8.1 mph - N/A   Clear
10:53 AM 68.0 °F - 44.6 °F 43% 29.92 in 10.0 mi WSW 9.2 mph - N/A   Clear
11:14 AM 69.8 °F - 44.6 °F 40% 29.92 in 10.0 mi SW 11.5 mph 16.1 mph N/A   Clear
11:34 AM 69.8 °F - 44.6 °F 40% 29.91 in 10.0 mi SW 11.5 mph - N/A   Clear
11:53 AM 69.8 °F - 44.6 °F 40% 29.90 in 10.0 mi SSW 5.8 mph - N/A   Clear
12:13 PM 71.6 °F - 46.4 °F 41% 29.90 in 10.0 mi SW 10.4 mph - N/A   Clear
12:34 PM 73.4 °F - 42.8 °F 33% 29.89 in 10.0 mi West 4.6 mph - N/A   Clear
12:53 PM 75.2 °F - 39.2 °F 27% 29.89 in 10.0 mi NW 5.8 mph 18.4 mph N/A   Clear
1:13 PM 75.2 °F - 39.2 °F 27% 29.89 in 10.0 mi WNW 8.1 mph - N/A   Clear
1:34 PM 75.2 °F - 39.2 °F 27% 29.89 in 10.0 mi NW 9.2 mph - N/A   Clear
1:53 PM 77.0 °F - 39.2 °F 26% 29.88 in 10.0 mi WNW 3.5 mph - N/A   Clear
2:13 PM 75.2 °F - 37.4 °F 25% 29.88 in 10.0 mi NW 3.5 mph - N/A   Clear
2:34 PM 78.8 °F - 37.4 °F 23% 29.87 in 10.0 mi West 6.9 mph - N/A   Clear
2:53 PM 77.0 °F - 35.6 °F 22% 29.87 in 10.0 mi West 9.2 mph 18.4 mph N/A   Clear
3:13 PM 75.2 °F - 35.6 °F 24% 29.87 in 10.0 mi NW 6.9 mph - N/A   Clear
3:34 PM 75.2 °F - 35.6 °F 24% 29.86 in 10.0 mi NW 8.1 mph - N/A   Clear
3:53 PM 75.2 °F - 35.6 °F 24% 29.86 in 10.0 mi WNW 10.4 mph - N/A   Clear
4:13 PM 75.2 °F - 35.6 °F 24% 29.86 in 10.0 mi WNW 9.2 mph - N/A   Clear
4:34 PM 77.0 °F - 39.2 °F 26% 29.85 in 10.0 mi West 11.5 mph - N/A   Clear
4:53 PM 78.8 °F - 39.2 °F 24% 29.85 in 10.0 mi West 16.1 mph 23.0 mph N/A   Clear
5:13 PM 75.2 °F - 39.2 °F 27% 29.85 in 10.0 mi West 16.1 mph 21.9 mph N/A   Clear
5:34 PM 78.8 °F - 39.2 °F 24% 29.85 in 10.0 mi West 16.1 mph 21.9 mph N/A   Clear
5:53 PM 75.2 °F - 39.2 °F 27% 29.85 in 10.0 mi West 12.7 mph 21.9 mph N/A   Clear
6:13 PM 75.2 °F - 37.4 °F 25% 29.84 in 10.0 mi West 13.8 mph - N/A   Clear
6:34 PM 75.2 °F - 39.2 °F 27% 29.84 in 10.0 mi West 12.7 mph - N/A   Clear
6:53 PM 75.2 °F - 39.2 °F 27% 29.84 in 10.0 mi West 15.0 mph 18.4 mph N/A   Clear
7:13 PM 75.2 °F - 39.2 °F 27% 29.84 in 10.0 mi West 11.5 mph - N/A   Clear
7:34 PM 75.2 °F - 37.4 °F 25% 29.83 in 10.0 mi West 10.4 mph - N/A   Clear
7:54 PM 75.2 °F - 37.4 °F 25% 29.83 in 10.0 mi West 10.4 mph - N/A   Clear
8:13 PM 71.6 °F - 39.2 °F 31% 29.83 in 10.0 mi West 6.9 mph - N/A   Clear
8:34 PM 71.6 °F - 39.2 °F 31% 29.83 in 10.0 mi WSW 5.8 mph - N/A   Clear
8:54 PM 69.8 °F - 39.2 °F 33% 29.83 in 10.0 mi WSW 5.8 mph - N/A   Clear
9:14 PM 69.8 °F - 39.2 °F 33% 29.84 in 10.0 mi WSW 6.9 mph - N/A   Clear
9:34 PM 64.4 °F - 39.2 °F 40% 29.84 in 10.0 mi WSW 6.9 mph - N/A   Clear
9:53 PM 64.4 °F - 41.0 °F 42% 29.85 in 10.0 mi SW 8.1 mph - N/A   Clear
10:14 PM 62.6 °F - 42.8 °F 48% 29.85 in 10.0 mi WSW 8.1 mph - N/A   Clear
10:33 PM 64.4 °F - 44.6 °F 49% 29.86 in 10.0 mi WSW 9.2 mph - N/A   Clear
10:54 PM 60.8 °F - 44.6 °F 55% 29.85 in 10.0 mi WSW 8.1 mph - N/A   Clear
11:14 PM 62.6 °F - 44.6 °F 52% 29.86 in 10.0 mi WSW 8.1 mph - N/A   Clear
11:54 PM 57.2 °F - 44.6 °F 63% 29.86 in 10.0 mi WSW 6.9 mph - N/A   Clear